Main page
METAR-TAF:

METAR-TAF

Airports :

Istres-Le Tubé Air Base

Istres, France

latitude: 43-31N, longitude: 004-56E, elevation: 23 m

Current weather observation

The report was made 20 minutes ago, at 04:30 UTC
Wind 5 kt from the North/Northeast
Temperature 20°C
Humidity 88%
Pressure 1008 hPa
Visibility 10 km or more
no clouds below 1500 m and no cumulonimbus

METAR: LFMI 150430Z AUTO 03005KT CAVOK 20/18 Q1008 NOSIG

Time: 06:50 (04:50 UTC)

Forecast

The report was made 2 hours and 50 minutes ago, at 02:00 UTC
Forecast valid from 15 at 03 UTC to 16 at 03 UTC
Wind 8 kt from the North
Visibility 10 km or more
no clouds below 1500 m and no cumulonimbus
Becoming
from 15 at 12 UTC to 15 at 14 UTC
Wind 10 kt from the West/Southwest
Becoming
from 15 at 19 UTC to 15 at 21 UTC
Wind 3 kt from variable directions

TAF: LFMI 150200Z 1503/1603 01008KT CAVOK TX32/1514Z TN19/1505Z BECMG 1512/1514 24010KT BECMG 1519/1521 VRB03KT

Weather observations and forecasts of more than 4000 airports (METAR and TAF reports).

The available stations are represented by yellow and red dots on the map.

Hover mouse over dot to see the name of the station.

Then click to see weather observations and forecasts.

To change the map : click on the green buttons with a black cross to zoom in, on the green button with a dash to zoom out, or on the green arrows for adjacent maps.


METAR-TAF: